Detalii statie SOPEMA [00001CFB]

Toti senzorii

Date Temperatura solului [C]Precipitatii [mm]Voltaj baterie [mV]Leaf Wetness [Min]HC Air temperature [C]HC Relative humidity [%]Punctul de roua [C]
medieminmaxsumaultimatimpmedieminmaxmediemediemin
2019-10-19 23:00:00 0 6864 13.47 13.18 13.69 100 13.4 13.1
2019-10-20 00:00:00 0 6874 12.6 12.34 13.06 100 12.5 12.3
2019-10-20 01:00:00 0 6844 12.63 12.5 12.82 100 12.6 12.5
2019-10-20 02:00:00 0 6864 12.62 12.4 12.84 100 12.5 12.4
2019-10-20 03:00:00 0 6844 12.17 12.09 12.32 100 12.1 12
2019-10-20 04:00:00 0.2 6844 12.27 12.17 12.4 100 12.2 12.1
2019-10-20 05:00:00 0 6816 11.96 11.77 12.18 100 11.9 11.7
2019-10-20 06:00:00 0 6816 11.9 11.7 12.03 100 11.8 11.7
2019-10-20 07:00:00 0 6816 11.78 11.68 11.89 100 11.7 11.6
2019-10-20 08:00:00 0 6806 11.56 11.33 11.76 100 11.5 11.3
2019-10-20 09:00:00 0.2 6932 12.34 11.82 12.84 100 12.3 11.8
2019-10-20 10:00:00 0 7166 14.02 13.01 15.1 100 14 13
2019-10-20 11:00:00 0 7264 16.26 15.28 17.06 100 16.2 15.2
2019-10-20 12:00:00 0.8 7246 19.08 16.97 21.01 94.33 18 16.9
2019-10-20 13:00:00 0 7246 21.93 20.73 22.97 71.66 16.4 15.6
2019-10-20 14:00:00 0 7246 22.96 22.31 23.68 61 14.8 14.3
2019-10-20 15:00:00 0.2 7236 23.88 23.31 24.35 53.7 13.7 13.2
2019-10-20 16:00:00 0 7206 24.33 24.01 25.06 50.35 13.1 12.5
2019-10-20 17:00:00 0 7070 23.79 23.25 24.14 49.92 12.4 12
2019-10-20 18:00:00 0 6962 22.31 21.07 23.15 52.87 12 11.8
2019-10-20 19:00:00 0 6884 19.92 18.74 20.92 65.85 13.1 12.1
2019-10-20 20:00:00 0 6854 17.68 16.82 18.6 85.85 15.1 14.5
2019-10-20 21:00:00 0 6864 16.09 15.55 16.68 98.37 15.7 15.5
2019-10-20 22:00:00 0 6864 15.18 14.86 15.52 100 15.1 14.8
2019-10-20 23:00:00 0 6864 14.61 14.25 14.94 100 14.5 14.2
2019-10-21 00:00:00 0 6844 13.78 13.56 14.13 100 13.7 13.5
2019-10-21 01:00:00 0 6864 13.74 13.65 13.83 100 13.7 13.6
2019-10-21 02:00:00 0 6854 13.67 13.46 13.84 100 13.6 13.4
2019-10-21 03:00:00 0 6844 13.07 12.87 13.41 100 13 12.8
2019-10-21 04:00:00 0.2 6826 12.53 12.14 12.88 100 12.4 12.1
2019-10-21 05:00:00 0 6826 11.92 11.79 12.02 100 11.8 11.7
2019-10-21 06:00:00 0 6806 12.18 12.04 12.32 100 12.1 12
2019-10-21 07:00:00 0 6796 12.29 12.2 12.39 100 12.2 12.2
2019-10-21 08:00:00 0 6796 12.02 11.67 12.39 100 11.9 11.6
2019-10-21 09:00:00 0 6816 12.66 11.93 13.5 100 12.6 11.9
2019-10-21 10:00:00 0 6826 14.45 13.71 15.09 100 14.4 13.7
2019-10-21 11:00:00 0 6904 15.46 15.02 16.2 100 15.4 15
2019-10-21 12:00:00 0.4 7166 16.89 16.2 17.95 100 16.8 16.2
2019-10-21 13:00:00 0 7264 19.29 18.15 22.21 99.87 19.2 18.1
2019-10-21 14:00:00 0 7264 23.31 22.51 24.35 67.71 16.8 15.8
2019-10-21 15:00:00 0 7236 24.1 23.52 24.78 57.63 15 14.2
2019-10-21 16:00:00 0 7206 24.46 24.26 24.64 51.25 13.5 13
2019-10-21 17:00:00 0 7060 23.93 23.3 24.37 51.42 13.1 12.8
2019-10-21 18:00:00 0 6962 22.19 20.75 23.32 58.59 13.4 12.9
2019-10-21 19:00:00 0 6884 19.27 18.19 20.56 73.27 14.1 13.9
2019-10-21 20:00:00 0 6884 17.07 16.27 18.02 86.88 14.7 14.5
2019-10-21 21:00:00 0 6874 15.54 15.01 16.09 97.76 15 14.9
2019-10-21 22:00:00 0 6864 14.44 14.04 14.95 100 14.4 14